sensor_id;sensor_type;location;lat;lon;timestamp;P1;durP1;ratioP1;P2;durP2;ratioP2
69305;SDS011;56427;51.580;4.656;2023-05-07T00:01:48;18.90;;;14.70;;
69305;SDS011;56427;51.580;4.656;2023-05-07T00:04:13;19.77;;;14.40;;
69305;SDS011;56427;51.580;4.656;2023-05-07T00:06:39;24.73;;;16.15;;
69305;SDS011;56427;51.580;4.656;2023-05-07T00:09:05;16.20;;;14.00;;
69305;SDS011;56427;51.580;4.656;2023-05-07T00:11:31;20.35;;;15.05;;
69305;SDS011;56427;51.580;4.656;2023-05-07T00:13:58;21.15;;;15.13;;
69305;SDS011;56427;51.580;4.656;2023-05-07T00:16:23;19.10;;;15.23;;
69305;SDS011;56427;51.580;4.656;2023-05-07T00:18:49;20.63;;;15.90;;
69305;SDS011;56427;51.580;4.656;2023-05-07T00:21:15;17.37;;;13.60;;
69305;SDS011;56427;51.580;4.656;2023-05-07T00:23:41;21.63;;;16.30;;
69305;SDS011;56427;51.580;4.656;2023-05-07T00:26:06;19.00;;;14.53;;
69305;SDS011;56427;51.580;4.656;2023-05-07T00:28:32;18.52;;;14.68;;
69305;SDS011;56427;51.580;4.656;2023-05-07T00:30:57;16.93;;;14.30;;
69305;SDS011;56427;51.580;4.656;2023-05-07T00:33:23;21.03;;;15.90;;
69305;SDS011;56427;51.580;4.656;2023-05-07T00:35:48;16.77;;;14.85;;
69305;SDS011;56427;51.580;4.656;2023-05-07T00:38:14;18.17;;;14.43;;
69305;SDS011;56427;51.580;4.656;2023-05-07T00:40:39;18.37;;;14.20;;
69305;SDS011;56427;51.580;4.656;2023-05-07T00:43:05;19.53;;;14.70;;
69305;SDS011;56427;51.580;4.656;2023-05-07T00:45:33;18.52;;;14.70;;
69305;SDS011;56427;51.580;4.656;2023-05-07T00:48:00;22.07;;;16.10;;
69305;SDS011;56427;51.580;4.656;2023-05-07T00:50:27;19.30;;;15.05;;
69305;SDS011;56427;51.580;4.656;2023-05-07T00:52:53;19.02;;;15.07;;
69305;SDS011;56427;51.580;4.656;2023-05-07T00:55:23;17.50;;;14.15;;
69305;SDS011;56427;51.580;4.656;2023-05-07T00:57:49;18.60;;;14.60;;
69305;SDS011;56427;51.580;4.656;2023-05-07T01:00:16;21.47;;;15.20;;
69305;SDS011;56427;51.580;4.656;2023-05-07T01:02:42;19.92;;;15.82;;
69305;SDS011;56427;51.580;4.656;2023-05-07T01:05:09;21.95;;;17.08;;
69305;SDS011;56427;51.580;4.656;2023-05-07T01:07:40;21.10;;;15.75;;
69305;SDS011;56427;51.580;4.656;2023-05-07T01:10:06;21.80;;;16.38;;
69305;SDS011;56427;51.580;4.656;2023-05-07T01:12:32;23.47;;;16.47;;
69305;SDS011;56427;51.580;4.656;2023-05-07T01:14:59;22.42;;;17.80;;
69305;SDS011;56427;51.580;4.656;2023-05-07T01:17:25;19.13;;;15.82;;
69305;SDS011;56427;51.580;4.656;2023-05-07T01:19:50;25.43;;;17.33;;
69305;SDS011;56427;51.580;4.656;2023-05-07T01:22:25;20.52;;;16.35;;
69305;SDS011;56427;51.580;4.656;2023-05-07T01:24:58;20.98;;;16.15;;
69305;SDS011;56427;51.580;4.656;2023-05-07T01:27:24;22.35;;;16.05;;
69305;SDS011;56427;51.580;4.656;2023-05-07T01:29:50;18.80;;;16.05;;
69305;SDS011;56427;51.580;4.656;2023-05-07T01:32:16;20.87;;;14.50;;
69305;SDS011;56427;51.580;4.656;2023-05-07T01:34:46;17.67;;;14.68;;
69305;SDS011;56427;51.580;4.656;2023-05-07T01:37:15;17.70;;;13.57;;
69305;SDS011;56427;51.580;4.656;2023-05-07T01:39:42;17.23;;;14.13;;
69305;SDS011;56427;51.580;4.656;2023-05-07T01:42:07;16.88;;;12.80;;
69305;SDS011;56427;51.580;4.656;2023-05-07T01:44:33;19.40;;;13.83;;
69305;SDS011;56427;51.580;4.656;2023-05-07T01:46:58;18.25;;;13.38;;
69305;SDS011;56427;51.580;4.656;2023-05-07T01:49:24;18.10;;;14.10;;
69305;SDS011;56427;51.580;4.656;2023-05-07T01:51:51;15.98;;;12.77;;
69305;SDS011;56427;51.580;4.656;2023-05-07T01:54:16;15.60;;;12.32;;
69305;SDS011;56427;51.580;4.656;2023-05-07T01:56:42;12.97;;;11.57;;
69305;SDS011;56427;51.580;4.656;2023-05-07T01:59:07;14.20;;;11.60;;
69305;SDS011;56427;51.580;4.656;2023-05-07T02:01:33;13.77;;;11.47;;
69305;SDS011;56427;51.580;4.656;2023-05-07T02:03:58;13.87;;;11.40;;
69305;SDS011;56427;51.580;4.656;2023-05-07T02:06:24;12.80;;;10.90;;
69305;SDS011;56427;51.580;4.656;2023-05-07T02:08:50;13.60;;;11.05;;
69305;SDS011;56427;51.580;4.656;2023-05-07T02:11:15;12.83;;;10.50;;
69305;SDS011;56427;51.580;4.656;2023-05-07T02:13:41;14.07;;;10.53;;
69305;SDS011;56427;51.580;4.656;2023-05-07T02:16:06;14.37;;;10.97;;
69305;SDS011;56427;51.580;4.656;2023-05-07T02:18:32;13.68;;;11.30;;
69305;SDS011;56427;51.580;4.656;2023-05-07T02:20:57;16.40;;;11.07;;
69305;SDS011;56427;51.580;4.656;2023-05-07T02:23:22;15.23;;;11.30;;
69305;SDS011;56427;51.580;4.656;2023-05-07T02:25:48;13.80;;;11.53;;
69305;SDS011;56427;51.580;4.656;2023-05-07T02:28:14;16.63;;;11.65;;
69305;SDS011;56427;51.580;4.656;2023-05-07T02:30:40;15.48;;;11.90;;
69305;SDS011;56427;51.580;4.656;2023-05-07T02:33:05;15.30;;;12.53;;
69305;SDS011;56427;51.580;4.656;2023-05-07T02:35:32;12.90;;;11.03;;
69305;SDS011;56427;51.580;4.656;2023-05-07T02:37:57;15.38;;;12.20;;
69305;SDS011;56427;51.580;4.656;2023-05-07T02:40:22;15.50;;;11.33;;
69305;SDS011;56427;51.580;4.656;2023-05-07T02:42:48;17.97;;;12.30;;
69305;SDS011;56427;51.580;4.656;2023-05-07T02:45:13;13.83;;;11.13;;
69305;SDS011;56427;51.580;4.656;2023-05-07T02:47:39;20.45;;;13.63;;
69305;SDS011;56427;51.580;4.656;2023-05-07T02:50:05;19.77;;;12.23;;
69305;SDS011;56427;51.580;4.656;2023-05-07T02:52:31;16.33;;;13.00;;
69305;SDS011;56427;51.580;4.656;2023-05-07T02:54:56;14.30;;;11.33;;
69305;SDS011;56427;51.580;4.656;2023-05-07T02:57:22;17.20;;;13.50;;
69305;SDS011;56427;51.580;4.656;2023-05-07T02:59:47;16.17;;;13.33;;
69305;SDS011;56427;51.580;4.656;2023-05-07T03:02:12;18.55;;;13.80;;
69305;SDS011;56427;51.580;4.656;2023-05-07T03:04:39;18.53;;;13.93;;
69305;SDS011;56427;51.580;4.656;2023-05-07T03:07:04;19.77;;;13.38;;
69305;SDS011;56427;51.580;4.656;2023-05-07T03:09:30;17.65;;;14.27;;
69305;SDS011;56427;51.580;4.656;2023-05-07T03:11:56;19.33;;;13.50;;
69305;SDS011;56427;51.580;4.656;2023-05-07T03:14:21;19.50;;;15.43;;
69305;SDS011;56427;51.580;4.656;2023-05-07T03:16:47;19.37;;;15.07;;
69305;SDS011;56427;51.580;4.656;2023-05-07T03:19:12;18.67;;;15.32;;
69305;SDS011;56427;51.580;4.656;2023-05-07T03:21:38;19.63;;;13.43;;
69305;SDS011;56427;51.580;4.656;2023-05-07T03:24:03;21.17;;;13.97;;
69305;SDS011;56427;51.580;4.656;2023-05-07T03:26:29;20.60;;;15.00;;
69305;SDS011;56427;51.580;4.656;2023-05-07T03:28:54;17.10;;;14.10;;
69305;SDS011;56427;51.580;4.656;2023-05-07T03:31:20;17.70;;;13.60;;
69305;SDS011;56427;51.580;4.656;2023-05-07T03:33:55;19.53;;;13.40;;
69305;SDS011;56427;51.580;4.656;2023-05-07T03:36:22;15.60;;;13.00;;
69305;SDS011;56427;51.580;4.656;2023-05-07T03:38:48;14.30;;;12.33;;
69305;SDS011;56427;51.580;4.656;2023-05-07T03:41:14;19.83;;;13.35;;
69305;SDS011;56427;51.580;4.656;2023-05-07T03:43:40;19.90;;;14.73;;
69305;SDS011;56427;51.580;4.656;2023-05-07T03:46:06;20.30;;;13.93;;
69305;SDS011;56427;51.580;4.656;2023-05-07T03:48:31;16.27;;;12.63;;
69305;SDS011;56427;51.580;4.656;2023-05-07T03:50:57;18.98;;;15.70;;
69305;SDS011;56427;51.580;4.656;2023-05-07T03:53:23;19.97;;;14.80;;
69305;SDS011;56427;51.580;4.656;2023-05-07T03:55:49;16.52;;;13.77;;
69305;SDS011;56427;51.580;4.656;2023-05-07T03:58:14;20.47;;;13.80;;
69305;SDS011;56427;51.580;4.656;2023-05-07T04:00:41;17.08;;;13.98;;
69305;SDS011;56427;51.580;4.656;2023-05-07T04:03:06;19.02;;;13.50;;
69305;SDS011;56427;51.580;4.656;2023-05-07T04:05:31;16.90;;;14.40;;
69305;SDS011;56427;51.580;4.656;2023-05-07T04:08:00;16.35;;;13.57;;
69305;SDS011;56427;51.580;4.656;2023-05-07T04:10:26;17.08;;;14.18;;
69305;SDS011;56427;51.580;4.656;2023-05-07T04:12:53;16.10;;;13.87;;
69305;SDS011;56427;51.580;4.656;2023-05-07T04:15:18;16.88;;;14.05;;
69305;SDS011;56427;51.580;4.656;2023-05-07T04:17:44;19.40;;;14.60;;
69305;SDS011;56427;51.580;4.656;2023-05-07T04:20:10;21.50;;;15.50;;
69305;SDS011;56427;51.580;4.656;2023-05-07T04:22:39;15.13;;;13.50;;
69305;SDS011;56427;51.580;4.656;2023-05-07T04:25:04;19.23;;;14.17;;
69305;SDS011;56427;51.580;4.656;2023-05-07T04:27:30;22.05;;;16.60;;
69305;SDS011;56427;51.580;4.656;2023-05-07T04:29:55;19.80;;;14.37;;
69305;SDS011;56427;51.580;4.656;2023-05-07T04:32:22;24.58;;;17.58;;
69305;SDS011;56427;51.580;4.656;2023-05-07T04:34:47;17.30;;;13.90;;
69305;SDS011;56427;51.580;4.656;2023-05-07T04:37:13;19.20;;;15.10;;
69305;SDS011;56427;51.580;4.656;2023-05-07T04:39:39;18.23;;;14.02;;
69305;SDS011;56427;51.580;4.656;2023-05-07T04:42:04;20.13;;;17.13;;
69305;SDS011;56427;51.580;4.656;2023-05-07T04:44:32;19.25;;;15.27;;
69305;SDS011;56427;51.580;4.656;2023-05-07T04:46:59;17.50;;;14.55;;
69305;SDS011;56427;51.580;4.656;2023-05-07T04:49:24;19.27;;;15.87;;
69305;SDS011;56427;51.580;4.656;2023-05-07T04:51:50;16.73;;;14.23;;
69305;SDS011;56427;51.580;4.656;2023-05-07T04:54:16;18.90;;;15.90;;
69305;SDS011;56427;51.580;4.656;2023-05-07T04:56:41;18.10;;;14.83;;
69305;SDS011;56427;51.580;4.656;2023-05-07T04:59:07;24.50;;;17.63;;
69305;SDS011;56427;51.580;4.656;2023-05-07T05:01:32;19.65;;;15.73;;
69305;SDS011;56427;51.580;4.656;2023-05-07T05:03:58;19.07;;;15.37;;
69305;SDS011;56427;51.580;4.656;2023-05-07T05:06:25;22.30;;;16.35;;
69305;SDS011;56427;51.580;4.656;2023-05-07T05:08:50;20.70;;;16.30;;
69305;SDS011;56427;51.580;4.656;2023-05-07T05:11:15;19.85;;;15.60;;
69305;SDS011;56427;51.580;4.656;2023-05-07T05:13:41;16.37;;;14.00;;
69305;SDS011;56427;51.580;4.656;2023-05-07T05:16:06;21.90;;;15.57;;
69305;SDS011;56427;51.580;4.656;2023-05-07T05:18:32;19.33;;;14.77;;
69305;SDS011;56427;51.580;4.656;2023-05-07T05:20:58;19.42;;;14.65;;
69305;SDS011;56427;51.580;4.656;2023-05-07T05:23:23;18.80;;;15.10;;
69305;SDS011;56427;51.580;4.656;2023-05-07T05:25:48;16.67;;;14.23;;
69305;SDS011;56427;51.580;4.656;2023-05-07T05:28:14;17.25;;;14.48;;
69305;SDS011;56427;51.580;4.656;2023-05-07T05:30:39;19.37;;;14.23;;
69305;SDS011;56427;51.580;4.656;2023-05-07T05:33:05;18.70;;;15.23;;
69305;SDS011;56427;51.580;4.656;2023-05-07T05:35:30;18.52;;;14.90;;
69305;SDS011;56427;51.580;4.656;2023-05-07T05:37:56;18.77;;;15.77;;
69305;SDS011;56427;51.580;4.656;2023-05-07T05:40:22;20.52;;;16.05;;
69305;SDS011;56427;51.580;4.656;2023-05-07T05:42:47;22.10;;;17.00;;
69305;SDS011;56427;51.580;4.656;2023-05-07T05:45:13;22.87;;;16.70;;
69305;SDS011;56427;51.580;4.656;2023-05-07T05:47:38;22.17;;;17.23;;
69305;SDS011;56427;51.580;4.656;2023-05-07T05:50:05;25.08;;;18.17;;
69305;SDS011;56427;51.580;4.656;2023-05-07T05:52:31;20.40;;;17.67;;
69305;SDS011;56427;51.580;4.656;2023-05-07T05:54:56;21.27;;;17.57;;
69305;SDS011;56427;51.580;4.656;2023-05-07T05:57:22;27.93;;;20.10;;
69305;SDS011;56427;51.580;4.656;2023-05-07T05:59:48;20.90;;;17.63;;
69305;SDS011;56427;51.580;4.656;2023-05-07T06:02:13;24.40;;;19.77;;
69305;SDS011;56427;51.580;4.656;2023-05-07T06:04:39;22.80;;;16.77;;
69305;SDS011;56427;51.580;4.656;2023-05-07T06:07:04;20.95;;;17.27;;
69305;SDS011;56427;51.580;4.656;2023-05-07T06:09:30;19.53;;;16.17;;
69305;SDS011;56427;51.580;4.656;2023-05-07T06:11:55;20.63;;;16.48;;
69305;SDS011;56427;51.580;4.656;2023-05-07T06:14:21;23.80;;;16.93;;
69305;SDS011;56427;51.580;4.656;2023-05-07T06:16:46;19.30;;;16.90;;
69305;SDS011;56427;51.580;4.656;2023-05-07T06:19:12;21.90;;;18.30;;
69305;SDS011;56427;51.580;4.656;2023-05-07T06:21:38;20.60;;;17.23;;
69305;SDS011;56427;51.580;4.656;2023-05-07T06:24:04;20.92;;;16.50;;
69305;SDS011;56427;51.580;4.656;2023-05-07T06:26:30;18.92;;;16.23;;
69305;SDS011;56427;51.580;4.656;2023-05-07T06:28:55;20.23;;;16.87;;
69305;SDS011;56427;51.580;4.656;2023-05-07T06:31:21;20.10;;;16.83;;
69305;SDS011;56427;51.580;4.656;2023-05-07T06:33:46;22.35;;;16.90;;
69305;SDS011;56427;51.580;4.656;2023-05-07T06:36:12;22.53;;;17.53;;
69305;SDS011;56427;51.580;4.656;2023-05-07T06:38:38;22.13;;;17.75;;
69305;SDS011;56427;51.580;4.656;2023-05-07T06:41:03;26.90;;;18.83;;
69305;SDS011;56427;51.580;4.656;2023-05-07T06:43:30;24.55;;;19.02;;
69305;SDS011;56427;51.580;4.656;2023-05-07T06:45:55;25.27;;;19.47;;
69305;SDS011;56427;51.580;4.656;2023-05-07T06:48:21;23.23;;;17.77;;
69305;SDS011;56427;51.580;4.656;2023-05-07T06:50:46;24.77;;;19.33;;
69305;SDS011;56427;51.580;4.656;2023-05-07T06:53:11;24.87;;;19.17;;
69305;SDS011;56427;51.580;4.656;2023-05-07T06:55:37;23.80;;;19.17;;
69305;SDS011;56427;51.580;4.656;2023-05-07T06:58:03;23.80;;;19.67;;
69305;SDS011;56427;51.580;4.656;2023-05-07T07:00:28;30.00;;;20.48;;
69305;SDS011;56427;51.580;4.656;2023-05-07T07:02:54;26.23;;;20.30;;
69305;SDS011;56427;51.580;4.656;2023-05-07T07:05:20;24.67;;;20.42;;
69305;SDS011;56427;51.580;4.656;2023-05-07T07:07:45;25.30;;;19.37;;
69305;SDS011;56427;51.580;4.656;2023-05-07T07:10:21;22.77;;;19.55;;
69305;SDS011;56427;51.580;4.656;2023-05-07T07:12:47;26.52;;;19.90;;
69305;SDS011;56427;51.580;4.656;2023-05-07T07:15:13;26.60;;;20.00;;
69305;SDS011;56427;51.580;4.656;2023-05-07T07:17:39;25.02;;;19.98;;
69305;SDS011;56427;51.580;4.656;2023-05-07T07:20:04;23.97;;;19.07;;
69305;SDS011;56427;51.580;4.656;2023-05-07T07:22:30;22.77;;;19.38;;
69305;SDS011;56427;51.580;4.656;2023-05-07T07:24:56;25.20;;;20.33;;
69305;SDS011;56427;51.580;4.656;2023-05-07T07:27:21;25.15;;;19.63;;
69305;SDS011;56427;51.580;4.656;2023-05-07T07:29:47;23.67;;;19.07;;
69305;SDS011;56427;51.580;4.656;2023-05-07T07:32:12;25.13;;;18.80;;
69305;SDS011;56427;51.580;4.656;2023-05-07T07:34:38;24.30;;;19.40;;
69305;SDS011;56427;51.580;4.656;2023-05-07T07:37:03;23.90;;;17.73;;
69305;SDS011;56427;51.580;4.656;2023-05-07T07:39:31;21.70;;;18.17;;
69305;SDS011;56427;51.580;4.656;2023-05-07T07:41:57;21.52;;;17.35;;
69305;SDS011;56427;51.580;4.656;2023-05-07T07:44:22;23.73;;;17.30;;
69305;SDS011;56427;51.580;4.656;2023-05-07T07:46:48;20.77;;;15.70;;
69305;SDS011;56427;51.580;4.656;2023-05-07T07:49:14;21.73;;;16.47;;
69305;SDS011;56427;51.580;4.656;2023-05-07T07:51:39;19.55;;;15.73;;
69305;SDS011;56427;51.580;4.656;2023-05-07T07:54:05;17.80;;;14.90;;
69305;SDS011;56427;51.580;4.656;2023-05-07T07:56:31;19.27;;;15.47;;
69305;SDS011;56427;51.580;4.656;2023-05-07T07:58:58;20.70;;;14.90;;
69305;SDS011;56427;51.580;4.656;2023-05-07T08:01:23;19.73;;;14.90;;
69305;SDS011;56427;51.580;4.656;2023-05-07T08:03:49;19.73;;;15.10;;
69305;SDS011;56427;51.580;4.656;2023-05-07T08:06:15;19.33;;;14.43;;
69305;SDS011;56427;51.580;4.656;2023-05-07T08:08:40;16.07;;;14.23;;
69305;SDS011;56427;51.580;4.656;2023-05-07T08:11:06;17.55;;;14.98;;
69305;SDS011;56427;51.580;4.656;2023-05-07T08:13:31;17.97;;;15.30;;
69305;SDS011;56427;51.580;4.656;2023-05-07T08:15:57;15.37;;;13.57;;
69305;SDS011;56427;51.580;4.656;2023-05-07T08:18:22;17.33;;;13.90;;
69305;SDS011;56427;51.580;4.656;2023-05-07T08:20:49;17.17;;;13.07;;
69305;SDS011;56427;51.580;4.656;2023-05-07T08:23:15;17.23;;;13.02;;
69305;SDS011;56427;51.580;4.656;2023-05-07T08:25:40;16.47;;;13.57;;
69305;SDS011;56427;51.580;4.656;2023-05-07T08:28:07;17.83;;;14.15;;
69305;SDS011;56427;51.580;4.656;2023-05-07T08:30:33;16.35;;;13.75;;
69305;SDS011;56427;51.580;4.656;2023-05-07T08:32:59;16.10;;;13.10;;
69305;SDS011;56427;51.580;4.656;2023-05-07T08:35:25;19.77;;;14.95;;
69305;SDS011;56427;51.580;4.656;2023-05-07T08:37:51;14.63;;;12.33;;
69305;SDS011;56427;51.580;4.656;2023-05-07T08:40:16;15.27;;;11.63;;
69305;SDS011;56427;51.580;4.656;2023-05-07T08:42:42;14.17;;;12.03;;
69305;SDS011;56427;51.580;4.656;2023-05-07T08:45:09;13.57;;;10.80;;
69305;SDS011;56427;51.580;4.656;2023-05-07T08:47:50;13.15;;;10.38;;
69305;SDS011;56427;51.580;4.656;2023-05-07T08:50:18;11.30;;;9.60;;
69305;SDS011;56427;51.580;4.656;2023-05-07T08:52:45;11.23;;;9.13;;
69305;SDS011;56427;51.580;4.656;2023-05-07T08:55:10;11.98;;;10.10;;
69305;SDS011;56427;51.580;4.656;2023-05-07T08:57:37;13.95;;;9.93;;
69305;SDS011;56427;51.580;4.656;2023-05-07T09:00:04;13.23;;;10.10;;
69305;SDS011;56427;51.580;4.656;2023-05-07T09:02:32;13.30;;;11.55;;
69305;SDS011;56427;51.580;4.656;2023-05-07T09:04:58;13.50;;;10.15;;
69305;SDS011;56427;51.580;4.656;2023-05-07T09:07:23;13.17;;;11.37;;
69305;SDS011;56427;51.580;4.656;2023-05-07T09:09:50;14.65;;;9.45;;
69305;SDS011;56427;51.580;4.656;2023-05-07T09:12:17;12.27;;;9.70;;
69305;SDS011;56427;51.580;4.656;2023-05-07T09:14:43;12.98;;;8.75;;
69305;SDS011;56427;51.580;4.656;2023-05-07T09:17:09;11.53;;;9.80;;
69305;SDS011;56427;51.580;4.656;2023-05-07T09:19:37;11.52;;;8.68;;
69305;SDS011;56427;51.580;4.656;2023-05-07T09:22:03;11.37;;;9.13;;
69305;SDS011;56427;51.580;4.656;2023-05-07T09:24:32;12.65;;;10.15;;
69305;SDS011;56427;51.580;4.656;2023-05-07T09:27:03;9.90;;;8.77;;
69305;SDS011;56427;51.580;4.656;2023-05-07T09:29:35;9.63;;;8.40;;
69305;SDS011;56427;51.580;4.656;2023-05-07T09:32:01;13.53;;;9.70;;
69305;SDS011;56427;51.580;4.656;2023-05-07T09:34:28;14.15;;;9.02;;
69305;SDS011;56427;51.580;4.656;2023-05-07T09:36:59;14.50;;;8.63;;
69305;SDS011;56427;51.580;4.656;2023-05-07T09:39:25;10.82;;;8.88;;
69305;SDS011;56427;51.580;4.656;2023-05-07T09:41:51;13.97;;;9.53;;
69305;SDS011;56427;51.580;4.656;2023-05-07T09:44:19;11.75;;;9.07;;
69305;SDS011;56427;51.580;4.656;2023-05-07T09:46:46;12.10;;;8.45;;
69305;SDS011;56427;51.580;4.656;2023-05-07T09:49:20;12.77;;;10.32;;
69305;SDS011;56427;51.580;4.656;2023-05-07T09:51:48;10.43;;;9.07;;
69305;SDS011;56427;51.580;4.656;2023-05-07T09:54:16;11.75;;;9.50;;
69305;SDS011;56427;51.580;4.656;2023-05-07T09:56:45;12.00;;;8.15;;
69305;SDS011;56427;51.580;4.656;2023-05-07T09:59:13;10.32;;;7.30;;
69305;SDS011;56427;51.580;4.656;2023-05-07T10:01:43;9.38;;;7.40;;
69305;SDS011;56427;51.580;4.656;2023-05-07T10:04:10;10.43;;;7.27;;
69305;SDS011;56427;51.580;4.656;2023-05-07T10:06:36;12.77;;;7.93;;
69305;SDS011;56427;51.580;4.656;2023-05-07T10:09:03;12.40;;;9.32;;
69305;SDS011;56427;51.580;4.656;2023-05-07T10:11:32;15.02;;;9.07;;
69305;SDS011;56427;51.580;4.656;2023-05-07T10:13:59;14.48;;;9.43;;
69305;SDS011;56427;51.580;4.656;2023-05-07T10:16:28;14.23;;;10.60;;
69305;SDS011;56427;51.580;4.656;2023-05-07T10:18:58;14.18;;;10.77;;
69305;SDS011;56427;51.580;4.656;2023-05-07T10:21:24;13.63;;;10.52;;
69305;SDS011;56427;51.580;4.656;2023-05-07T10:23:57;13.73;;;8.60;;
69305;SDS011;56427;51.580;4.656;2023-05-07T10:26:25;13.13;;;8.60;;
69305;SDS011;56427;51.580;4.656;2023-05-07T10:28:55;13.03;;;9.20;;
69305;SDS011;56427;51.580;4.656;2023-05-07T10:31:48;10.88;;;8.65;;
69305;SDS011;56427;51.580;4.656;2023-05-07T10:34:18;12.20;;;8.75;;
69305;SDS011;56427;51.580;4.656;2023-05-07T10:36:48;11.73;;;8.25;;
69305;SDS011;56427;51.580;4.656;2023-05-07T10:39:15;10.45;;;9.00;;
69305;SDS011;56427;51.580;4.656;2023-05-07T10:41:40;11.40;;;8.37;;
69305;SDS011;56427;51.580;4.656;2023-05-07T10:44:06;11.67;;;8.73;;
69305;SDS011;56427;51.580;4.656;2023-05-07T10:46:31;12.73;;;9.10;;
69305;SDS011;56427;51.580;4.656;2023-05-07T10:51:26;12.20;;;9.18;;
69305;SDS011;56427;51.580;4.656;2023-05-07T10:54:34;13.15;;;8.50;;
69305;SDS011;56427;51.580;4.656;2023-05-07T10:56:44;11.45;;;7.57;;
69305;SDS011;56427;51.580;4.656;2023-05-07T11:02:03;16.15;;;10.10;;
69305;SDS011;56427;51.580;4.656;2023-05-07T11:04:31;15.25;;;11.25;;
69305;SDS011;56427;51.580;4.656;2023-05-07T11:07:22;14.05;;;9.55;;
69305;SDS011;56427;51.580;4.656;2023-05-07T11:15:01;12.37;;;9.47;;
69305;SDS011;56427;51.580;4.656;2023-05-07T11:17:52;16.15;;;9.93;;
69305;SDS011;56427;51.580;4.656;2023-05-07T11:21:05;15.10;;;10.60;;
69305;SDS011;56427;51.580;4.656;2023-05-07T11:26:07;13.80;;;8.63;;
69305;SDS011;56427;51.580;4.656;2023-05-07T11:28:37;11.90;;;8.50;;
69305;SDS011;56427;51.580;4.656;2023-05-07T11:31:07;11.60;;;8.23;;
69305;SDS011;56427;51.580;4.656;2023-05-07T11:33:33;14.37;;;8.07;;
69305;SDS011;56427;51.580;4.656;2023-05-07T11:35:59;14.18;;;9.02;;
69305;SDS011;56427;51.580;4.656;2023-05-07T11:38:28;13.55;;;9.18;;
69305;SDS011;56427;51.580;4.656;2023-05-07T11:40:58;14.20;;;9.63;;
69305;SDS011;56427;51.580;4.656;2023-05-07T11:43:29;10.88;;;8.88;;
69305;SDS011;56427;51.580;4.656;2023-05-07T11:45:54;15.33;;;9.57;;
69305;SDS011;56427;51.580;4.656;2023-05-07T11:48:20;13.93;;;9.43;;
69305;SDS011;56427;51.580;4.656;2023-05-07T11:50:50;15.73;;;9.98;;
69305;SDS011;56427;51.580;4.656;2023-05-07T11:53:17;14.18;;;9.93;;
69305;SDS011;56427;51.580;4.656;2023-05-07T11:55:46;14.40;;;10.10;;
69305;SDS011;56427;51.580;4.656;2023-05-07T11:58:12;14.10;;;9.27;;
69305;SDS011;56427;51.580;4.656;2023-05-07T12:00:51;13.52;;;9.68;;
69305;SDS011;56427;51.580;4.656;2023-05-07T12:03:18;13.23;;;10.00;;
69305;SDS011;56427;51.580;4.656;2023-05-07T12:05:45;13.88;;;10.27;;
69305;SDS011;56427;51.580;4.656;2023-05-07T12:08:14;13.93;;;9.47;;
69305;SDS011;56427;51.580;4.656;2023-05-07T12:10:41;14.02;;;8.57;;
69305;SDS011;56427;51.580;4.656;2023-05-07T12:13:16;14.60;;;9.88;;
69305;SDS011;56427;51.580;4.656;2023-05-07T12:15:43;15.82;;;11.50;;
69305;SDS011;56427;51.580;4.656;2023-05-07T12:18:08;17.23;;;13.47;;
69305;SDS011;56427;51.580;4.656;2023-05-07T12:20:35;19.00;;;12.93;;
69305;SDS011;56427;51.580;4.656;2023-05-07T12:23:02;17.88;;;13.45;;
69305;SDS011;56427;51.580;4.656;2023-05-07T12:25:31;22.27;;;16.92;;
69305;SDS011;56427;51.580;4.656;2023-05-07T12:28:00;19.77;;;16.00;;
69305;SDS011;56427;51.580;4.656;2023-05-07T12:30:26;19.88;;;16.25;;
69305;SDS011;56427;51.580;4.656;2023-05-07T12:32:54;19.80;;;16.17;;
69305;SDS011;56427;51.580;4.656;2023-05-07T12:35:30;20.43;;;14.67;;
69305;SDS011;56427;51.580;4.656;2023-05-07T12:37:59;22.52;;;15.13;;
69305;SDS011;56427;51.580;4.656;2023-05-07T12:40:35;21.85;;;15.80;;
69305;SDS011;56427;51.580;4.656;2023-05-07T12:43:05;20.23;;;15.88;;
69305;SDS011;56427;51.580;4.656;2023-05-07T12:45:31;25.50;;;15.63;;
69305;SDS011;56427;51.580;4.656;2023-05-07T12:47:56;17.67;;;13.40;;
69305;SDS011;56427;51.580;4.656;2023-05-07T12:50:26;22.58;;;16.35;;
69305;SDS011;56427;51.580;4.656;2023-05-07T12:52:56;25.15;;;16.67;;
69305;SDS011;56427;51.580;4.656;2023-05-07T12:55:21;22.50;;;16.00;;
69305;SDS011;56427;51.580;4.656;2023-05-07T12:57:50;19.83;;;14.77;;
69305;SDS011;56427;51.580;4.656;2023-05-07T13:00:17;17.13;;;12.88;;
69305;SDS011;56427;51.580;4.656;2023-05-07T13:02:58;21.17;;;16.20;;
69305;SDS011;56427;51.580;4.656;2023-05-07T13:05:23;23.58;;;16.15;;
69305;SDS011;56427;51.580;4.656;2023-05-07T13:07:52;23.95;;;17.95;;
69305;SDS011;56427;51.580;4.656;2023-05-07T13:10:24;24.45;;;16.15;;
69305;SDS011;56427;51.580;4.656;2023-05-07T13:12:50;25.10;;;17.63;;
69305;SDS011;56427;51.580;4.656;2023-05-07T13:15:16;30.90;;;17.33;;
69305;SDS011;56427;51.580;4.656;2023-05-07T13:17:42;28.42;;;19.35;;
69305;SDS011;56427;51.580;4.656;2023-05-07T13:20:11;29.73;;;19.27;;
69305;SDS011;56427;51.580;4.656;2023-05-07T13:22:37;27.83;;;17.33;;
69305;SDS011;56427;51.580;4.656;2023-05-07T13:25:04;27.92;;;16.73;;
69305;SDS011;56427;51.580;4.656;2023-05-07T13:27:30;26.47;;;16.77;;
69305;SDS011;56427;51.580;4.656;2023-05-07T13:30:01;23.53;;;15.97;;
69305;SDS011;56427;51.580;4.656;2023-05-07T13:32:28;26.95;;;16.20;;
69305;SDS011;56427;51.580;4.656;2023-05-07T13:34:53;23.20;;;15.50;;
69305;SDS011;56427;51.580;4.656;2023-05-07T13:37:19;23.95;;;14.27;;
69305;SDS011;56427;51.580;4.656;2023-05-07T13:39:45;24.00;;;13.93;;
69305;SDS011;56427;51.580;4.656;2023-05-07T13:42:10;22.25;;;13.65;;
69305;SDS011;56427;51.580;4.656;2023-05-07T13:44:36;21.83;;;12.30;;
69305;SDS011;56427;51.580;4.656;2023-05-07T13:47:01;22.80;;;12.83;;
69305;SDS011;56427;51.580;4.656;2023-05-07T13:49:27;20.45;;;11.60;;
69305;SDS011;56427;51.580;4.656;2023-05-07T13:51:52;18.70;;;10.70;;
69305;SDS011;56427;51.580;4.656;2023-05-07T13:54:18;18.33;;;10.93;;
69305;SDS011;56427;51.580;4.656;2023-05-07T13:56:43;18.48;;;11.13;;
69305;SDS011;56427;51.580;4.656;2023-05-07T13:59:09;22.50;;;11.10;;
69305;SDS011;56427;51.580;4.656;2023-05-07T14:01:34;21.40;;;11.50;;
69305;SDS011;56427;51.580;4.656;2023-05-07T14:04:00;19.67;;;11.10;;
69305;SDS011;56427;51.580;4.656;2023-05-07T14:06:25;15.77;;;10.23;;
69305;SDS011;56427;51.580;4.656;2023-05-07T14:08:51;22.87;;;10.77;;
69305;SDS011;56427;51.580;4.656;2023-05-07T14:11:16;21.77;;;10.77;;
69305;SDS011;56427;51.580;4.656;2023-05-07T14:13:42;18.37;;;11.10;;
69305;SDS011;56427;51.580;4.656;2023-05-07T14:16:07;19.60;;;10.93;;
69305;SDS011;56427;51.580;4.656;2023-05-07T14:18:33;16.73;;;10.15;;
69305;SDS011;56427;51.580;4.656;2023-05-07T14:20:59;19.53;;;10.53;;
69305;SDS011;56427;51.580;4.656;2023-05-07T14:23:25;16.48;;;10.52;;
69305;SDS011;56427;51.580;4.656;2023-05-07T14:25:54;21.52;;;12.82;;
69305;SDS011;56427;51.580;4.656;2023-05-07T14:28:22;21.38;;;12.80;;
69305;SDS011;56427;51.580;4.656;2023-05-07T14:30:48;23.17;;;13.87;;
69305;SDS011;56427;51.580;4.656;2023-05-07T14:33:13;26.23;;;16.42;;
69305;SDS011;56427;51.580;4.656;2023-05-07T14:35:39;27.63;;;17.67;;